Flag for Saudi Arabia

Past Weather in Riyadh, Saudi Arabia — Yesterday and Last 2 Weeks

Currently: 59 °F. Clear. (Weather station: Riyadh Airport, Saudi Arabia). See more current weather

Past Weather in Riyadh — Graph

°F

Riyadh Temperature Yesterday

Maximum temperature yesterday: 72 °F (at 2:00 pm)
Minimum temperature yesterday: 52 °F (at 6:00 am)
Average temperature yesterday: 63 °F

High & Low Weather Summary for the Past Weeks

 TemperatureHumidityPressure
High79 °F (Jan 17, 1:00 pm)100% (Jan 12, 5:00 am)30.33 "Hg (Jan 12, 5:00 am)
Low43 °F (Jan 13, 7:00 am)11% (Jan 13, 3:00 pm)29.92 "Hg (Jan 17, 4:00 am)
Average61 °F46%30.14 "Hg
* Reported Jan 4 11:00 pm — Jan 19 11:00 pm, Riyadh. Weather by CustomWeather, © 2021

Note: Actual official high and low records may vary slightly from our data, if they occured in-between our weather recording intervals... More about our weather records

Riyadh Weather History for the Previous 24 Hours

Scroll right to see more
 ConditionsComfort  
Time TempWeatherWind HumidityBarometerVisibility
11:00 pm
Tue, Jan 19
61 °FClear.7 mph27%30.12 "Hg10 mi
10:00 pm63 °FClear.13 mph25%30.15 "Hg10 mi
9:00 pm64 °FClear.13 mph24%30.15 "Hg10 mi
8:00 pm66 °FClear.9 mph22%30.12 "Hg10 mi
7:00 pm68 °FClear.9 mph21%30.12 "Hg10 mi
6:00 pm68 °FClear.12 mph23%30.09 "Hg6 mi
5:00 pm70 °FClear.10 mph21%30.09 "Hg4 mi
4:00 pm72 °FSunny.12 mph20%30.07 "Hg10 mi
3:00 pm72 °FSunny.10 mph20%30.07 "Hg10 mi
2:00 pm72 °FSunny.10 mph22%30.09 "Hg10 mi
1:00 pm70 °FSunny.7 mph23%30.12 "Hg10 mi
12:00 pm68 °FSunny.8 mph24%30.15 "Hg10 mi
11:00 am64 °FSunny.10 mph32%30.18 "Hg10 mi
10:00 am63 °FSunny.9 mph37%30.21 "Hg10 mi
9:00 am61 °FSunny.8 mph39%30.21 "Hg10 mi
8:00 am57 °FSunny.6 mph39%30.18 "Hg10 mi
7:00 am54 °FSunny.5 mph38%30.18 "Hg10 mi
6:00 am52 °FClear.No wind44%30.15 "Hg10 mi
5:00 am55 °FClear.3 mph38%30.15 "Hg10 mi
4:00 am57 °FClear.3 mph36%30.15 "Hg10 mi
3:00 am57 °FClear.5 mph36%30.15 "Hg10 mi
2:00 am59 °FClear.3 mph34%30.15 "Hg10 mi
1:00 am61 °FClear.5 mph31%30.15 "Hg10 mi
Weather by CustomWeather, © 2021

See weather overview